createdAt,value
2023-03-15T00:01:46.851Z,3.43
2023-03-15T00:16:48.842Z,3.97
2023-03-15T00:31:51.720Z,4.00
2023-03-15T00:46:53.471Z,3.63
2023-03-15T01:01:55.419Z,4.33
2023-03-15T01:16:57.207Z,3.97
2023-03-15T01:31:58.891Z,4.97
2023-03-15T01:47:00.632Z,3.63
2023-03-15T02:02:05.233Z,4.87
2023-03-15T02:17:07.106Z,3.63
2023-03-15T02:32:09.263Z,4.17
2023-03-15T02:47:15.973Z,3.67
2023-03-15T03:02:18.286Z,3.70
2023-03-15T03:17:19.968Z,3.90
2023-03-15T03:32:22.162Z,4.17
2023-03-15T03:47:23.896Z,3.33
2023-03-15T04:02:25.712Z,3.60
2023-03-15T04:17:27.355Z,4.13
2023-03-15T04:32:29.090Z,3.77
2023-03-15T04:47:31.358Z,3.87
2023-03-15T05:02:33.168Z,3.80
2023-03-15T05:17:34.844Z,3.77
2023-03-15T05:32:39.592Z,3.63
2023-03-15T06:08:53.435Z,23.03
2023-03-15T06:23:55.244Z,18.07
2023-03-15T06:38:56.980Z,20.40
2023-03-15T06:53:59.716Z,16.90
2023-03-15T07:09:03.431Z,15.00
2023-03-15T07:24:05.458Z,13.80
2023-03-15T07:39:07.161Z,16.90
2023-03-15T07:54:09.029Z,15.93
2023-03-15T08:09:12.094Z,15.83
2023-03-15T08:24:14.492Z,16.53
2023-03-15T08:39:16.328Z,15.37
2023-03-15T08:54:18.065Z,15.77
2023-03-15T09:09:19.772Z,14.63
2023-03-15T09:24:21.379Z,13.30
2023-03-15T09:39:23.542Z,13.97
2023-03-15T09:54:32.311Z,11.57
2023-03-15T10:09:34.992Z,14.47
2023-03-15T10:24:46.109Z,15.13
2023-03-15T10:54:58.817Z,13.53
2023-03-15T11:10:07.191Z,15.17
2023-03-15T11:25:16.953Z,13.03
2023-03-15T11:40:33.576Z,12.13
2023-03-15T11:55:35.505Z,13.33
2023-03-15T12:10:46.540Z,13.10
2023-03-15T12:25:56.025Z,10.23
2023-03-15T12:40:58.807Z,12.43
2023-03-15T12:56:32.776Z,11.80
2023-03-15T13:11:43.404Z,11.13
2023-03-15T13:27:09.702Z,11.17
2023-03-15T13:42:20.858Z,10.00
2023-03-15T17:24:14.086Z,27.30
2023-03-15T17:39:17.217Z,27.97
2023-03-15T17:54:20.363Z,27.40
2023-03-15T18:09:23.940Z,23.10
2023-03-15T18:24:25.721Z,23.27
2023-03-15T18:39:27.541Z,21.40
2023-03-15T18:54:29.209Z,20.60
2023-03-15T19:09:30.908Z,19.33
2023-03-15T19:24:33.248Z,19.17
2023-03-15T19:39:35.077Z,17.43
2023-03-15T19:54:36.885Z,16.97
2023-03-15T20:09:40.926Z,16.93
2023-03-15T20:24:44.288Z,16.00
2023-03-15T20:39:47.009Z,15.73
2023-03-15T20:54:48.801Z,14.83
2023-03-15T21:09:50.572Z,13.60
2023-03-15T21:24:55.935Z,13.43
2023-03-15T21:39:58.069Z,10.90
2023-03-15T21:54:59.821Z,11.07
2023-03-15T22:10:01.805Z,11.03
2023-03-15T22:25:03.565Z,9.83
2023-03-15T22:40:06.518Z,11.33
2023-03-15T22:55:09.391Z,9.60
2023-03-15T23:10:12.306Z,9.03
2023-03-15T23:25:16.354Z,8.43
2023-03-15T23:40:19.539Z,9.20
2023-03-15T23:55:22.658Z,7.87
